createdAt,value
2019-03-17T00:00:14.396Z,31.70
2019-03-17T00:02:46.078Z,31.80
2019-03-17T00:05:14.773Z,31.70
2019-03-17T00:07:43.389Z,31.70
2019-03-17T00:10:12.402Z,32.20
2019-03-17T00:12:40.987Z,31.70
2019-03-17T00:15:09.752Z,31.70
2019-03-17T00:17:38.381Z,31.70
2019-03-17T00:20:08.046Z,31.70
2019-03-17T00:22:36.798Z,31.60
2019-03-17T00:25:09.467Z,31.70
2019-03-17T00:27:36.538Z,31.60
2019-03-17T00:30:08.457Z,31.50
2019-03-17T00:32:37.084Z,31.50
2019-03-17T00:35:06.606Z,31.50
2019-03-17T00:37:35.322Z,31.50
2019-03-17T00:40:05.891Z,31.50
2019-03-17T00:42:34.682Z,31.50
2019-03-17T00:45:04.132Z,31.50
2019-03-17T00:47:32.908Z,31.50
2019-03-17T00:50:01.566Z,31.50
2019-03-17T00:52:30.208Z,31.50
2019-03-17T00:54:58.843Z,31.50
2019-03-17T00:57:31.544Z,31.50
2019-03-17T01:00:00.452Z,31.50
2019-03-17T01:02:29.438Z,31.40
2019-03-17T01:04:58.080Z,31.40
2019-03-17T01:07:26.860Z,31.40
2019-03-17T01:09:55.590Z,31.40
2019-03-17T01:12:24.329Z,31.70
2019-03-17T01:14:53.038Z,31.30
2019-03-17T01:17:21.635Z,31.40
2019-03-17T01:19:50.266Z,31.40
2019-03-17T01:22:19.188Z,31.40
2019-03-17T01:24:47.888Z,31.40
2019-03-17T01:27:16.535Z,31.40
2019-03-17T01:29:45.220Z,31.40
2019-03-17T01:32:13.925Z,31.30
2019-03-17T01:34:42.497Z,31.30
2019-03-17T01:37:11.255Z,31.30
2019-03-17T01:39:39.919Z,31.40
2019-03-17T01:42:08.740Z,31.30
2019-03-17T01:44:37.437Z,31.30
2019-03-17T01:47:06.139Z,31.30
2019-03-17T01:49:34.835Z,31.30
2019-03-17T01:52:03.514Z,31.30
2019-03-17T01:54:32.161Z,31.30
2019-03-17T01:57:00.785Z,31.20
2019-03-17T01:59:29.426Z,31.20
2019-03-17T02:01:58.087Z,31.20
2019-03-17T02:04:26.786Z,31.30
2019-03-17T02:06:55.403Z,31.20
2019-03-17T02:09:24.135Z,31.20
2019-03-17T02:11:52.783Z,31.20
2019-03-17T02:14:21.610Z,31.20
2019-03-17T02:16:50.278Z,31.20
2019-03-17T02:19:18.919Z,31.20
2019-03-17T02:21:47.589Z,31.20
2019-03-17T02:24:16.171Z,31.10
2019-03-17T02:26:44.962Z,31.10
2019-03-17T02:29:13.673Z,31.10
2019-03-17T02:31:42.384Z,31.20
2019-03-17T02:34:12.197Z,31.10
2019-03-17T02:36:41.114Z,31.10
2019-03-17T02:39:09.796Z,31.20
2019-03-17T02:41:38.489Z,31.20
2019-03-17T02:44:07.209Z,31.10
2019-03-17T02:46:35.931Z,31.10
2019-03-17T02:49:04.687Z,31.20
2019-03-17T02:51:33.361Z,31.10
2019-03-17T02:54:02.040Z,31.10
2019-03-17T02:56:30.679Z,31.10
2019-03-17T02:58:59.351Z,31.00
2019-03-17T03:01:27.922Z,31.00
2019-03-17T03:03:56.707Z,31.00
2019-03-17T03:06:25.426Z,31.00
2019-03-17T03:08:56.792Z,31.00
2019-03-17T03:11:25.424Z,31.00
2019-03-17T03:13:54.010Z,31.00
2019-03-17T03:16:22.581Z,31.00
2019-03-17T03:18:52.155Z,31.00
2019-03-17T03:21:20.853Z,31.00
2019-03-17T03:23:49.428Z,31.00
2019-03-17T03:26:18.147Z,31.00
2019-03-17T03:28:46.854Z,31.00
2019-03-17T03:31:15.632Z,30.90
2019-03-17T03:33:44.275Z,31.00
2019-03-17T03:36:12.983Z,30.90
2019-03-17T03:38:41.673Z,30.90
2019-03-17T03:41:10.336Z,30.90
2019-03-17T03:43:42.102Z,30.90
2019-03-17T03:46:10.758Z,30.90
2019-03-17T03:48:39.416Z,30.90
2019-03-17T03:51:08.056Z,30.80
2019-03-17T03:53:36.823Z,30.80
2019-03-17T03:56:07.237Z,31.40
2019-03-17T03:58:55.253Z,30.80
2019-03-17T04:01:23.852Z,30.70
2019-03-17T04:03:52.556Z,30.70
2019-03-17T04:06:26.749Z,30.70
2019-03-17T04:08:51.667Z,30.80
2019-03-17T04:11:20.335Z,30.80
2019-03-17T04:13:48.932Z,30.70
2019-03-17T04:16:17.632Z,30.70
2019-03-17T04:18:46.404Z,30.80
2019-03-17T04:21:14.983Z,30.60
2019-03-17T04:23:43.595Z,30.70
2019-03-17T04:26:12.259Z,30.60
2019-03-17T04:28:43.188Z,30.60
2019-03-17T04:31:14.569Z,30.60
2019-03-17T04:33:42.028Z,30.60
2019-03-17T04:36:10.607Z,30.30
2019-03-17T04:38:39.288Z,30.60
2019-03-17T04:41:07.878Z,30.60
2019-03-17T04:43:36.514Z,30.60
2019-03-17T04:46:05.265Z,30.50
2019-03-17T04:48:33.892Z,30.60
2019-03-17T04:51:02.520Z,30.50
2019-03-17T04:53:31.209Z,30.50
2019-03-17T04:56:02.872Z,30.50
2019-03-17T04:58:31.519Z,30.50
2019-03-17T05:01:00.216Z,30.50
2019-03-17T05:03:28.864Z,30.50
2019-03-17T05:05:57.493Z,30.50
2019-03-17T05:08:26.076Z,30.50
2019-03-17T05:10:55.067Z,30.60
2019-03-17T05:13:23.692Z,30.50
2019-03-17T05:15:52.373Z,30.50
2019-03-17T05:18:21.117Z,30.50
2019-03-17T05:20:49.697Z,30.40
2019-03-17T05:23:18.554Z,30.50
2019-03-17T05:25:47.141Z,30.40
2019-03-17T05:28:15.797Z,30.40
2019-03-17T05:30:44.495Z,30.40
2019-03-17T05:33:13.158Z,30.30
2019-03-17T05:35:41.809Z,30.30
2019-03-17T05:38:10.446Z,30.30
2019-03-17T05:40:39.065Z,30.30
2019-03-17T05:43:07.857Z,30.30
2019-03-17T05:45:36.568Z,30.30
2019-03-17T05:48:05.372Z,30.30
2019-03-17T05:50:33.966Z,30.30
2019-03-17T05:53:02.748Z,30.30
2019-03-17T05:55:31.427Z,30.20
2019-03-17T05:58:00.082Z,30.20
2019-03-17T06:00:28.902Z,30.20
2019-03-17T06:02:57.481Z,30.20
2019-03-17T06:05:26.271Z,30.20
2019-03-17T06:07:57.987Z,30.20
2019-03-17T06:10:26.660Z,30.20
2019-03-17T06:12:55.297Z,30.20
2019-03-17T06:15:23.872Z,30.20
2019-03-17T06:17:52.710Z,30.20
2019-03-17T06:20:21.371Z,30.20
2019-03-17T06:22:50.178Z,30.20
2019-03-17T06:25:18.864Z,30.20
2019-03-17T06:27:47.500Z,30.20
2019-03-17T06:30:16.407Z,30.20
2019-03-17T06:32:45.297Z,30.20
2019-03-17T06:35:13.958Z,30.20
2019-03-17T06:37:42.797Z,30.20
2019-03-17T06:40:14.612Z,30.20
2019-03-17T06:42:43.381Z,30.20
2019-03-17T06:45:12.138Z,30.20
2019-03-17T06:47:43.905Z,30.20
2019-03-17T06:50:15.770Z,30.20
2019-03-17T06:52:44.454Z,30.20
2019-03-17T06:55:14.909Z,30.20
2019-03-17T06:57:43.485Z,30.20
2019-03-17T07:00:16.999Z,30.20
2019-03-17T07:02:45.728Z,30.20
2019-03-17T07:05:14.415Z,30.20
2019-03-17T07:07:44.603Z,30.20
2019-03-17T07:10:13.658Z,30.20
2019-03-17T07:12:42.374Z,30.20
2019-03-17T07:15:12.202Z,30.20
2019-03-17T07:17:41.003Z,30.10
2019-03-17T07:20:12.732Z,30.10
2019-03-17T07:22:41.467Z,30.10
2019-03-17T07:25:10.245Z,30.30
2019-03-17T07:27:38.899Z,30.10
2019-03-17T07:30:10.593Z,30.10
2019-03-17T07:32:39.167Z,30.10
2019-03-17T07:35:08.477Z,30.10
2019-03-17T07:37:37.258Z,30.10
2019-03-17T07:40:08.915Z,30.10
2019-03-17T07:42:37.503Z,30.20
2019-03-17T07:45:08.585Z,30.00
2019-03-17T07:47:37.300Z,30.10
2019-03-17T07:50:13.668Z,30.00
2019-03-17T07:52:42.374Z,30.10
2019-03-17T07:55:11.262Z,30.00
2019-03-17T07:57:40.002Z,30.10
2019-03-17T08:00:11.492Z,30.00
2019-03-17T08:02:40.207Z,30.10
2019-03-17T08:05:10.060Z,30.10
2019-03-17T08:07:38.783Z,30.10
2019-03-17T08:10:13.185Z,30.20
2019-03-17T08:12:41.873Z,30.30
2019-03-17T08:15:12.764Z,30.30
2019-03-17T08:17:41.552Z,30.30
2019-03-17T08:20:11.874Z,30.30
2019-03-17T08:22:40.669Z,30.30
2019-03-17T08:25:10.784Z,30.40
2019-03-17T08:27:39.549Z,30.40
2019-03-17T08:30:13.944Z,30.40
2019-03-17T08:32:42.652Z,30.40
2019-03-17T08:35:11.399Z,30.50
2019-03-17T08:37:40.089Z,30.50
2019-03-17T08:40:14.003Z,30.50
2019-03-17T08:42:42.747Z,30.50
2019-03-17T08:45:12.977Z,30.50
2019-03-17T08:47:41.668Z,30.60
2019-03-17T08:50:12.465Z,30.60
2019-03-17T08:52:41.199Z,31.20
2019-03-17T08:55:13.429Z,30.70
2019-03-17T08:57:42.145Z,30.70
2019-03-17T09:00:18.893Z,30.70
2019-03-17T09:02:47.654Z,30.70
2019-03-17T09:05:16.361Z,30.70
2019-03-17T09:07:46.696Z,30.70
2019-03-17T09:10:16.124Z,30.70
2019-03-17T09:12:45.805Z,30.80
2019-03-17T09:15:14.558Z,30.80
2019-03-17T09:17:43.166Z,30.70
2019-03-17T09:20:13.530Z,30.80
2019-03-17T09:22:43.138Z,30.70
2019-03-17T09:25:12.076Z,30.70
2019-03-17T09:27:40.790Z,30.70
2019-03-17T09:30:15.654Z,30.70
2019-03-17T09:32:44.350Z,30.70
2019-03-17T09:35:13.184Z,30.60
2019-03-17T09:37:41.917Z,30.70
2019-03-17T09:40:12.813Z,30.70
2019-03-17T09:42:41.398Z,30.60
2019-03-17T09:45:16.552Z,30.70
2019-03-17T09:47:45.236Z,30.70
2019-03-17T09:50:20.863Z,30.70
2019-03-17T09:52:49.575Z,30.70
2019-03-17T09:55:18.348Z,30.70
2019-03-17T09:57:47.058Z,30.60
2019-03-17T10:00:16.820Z,30.60
2019-03-17T10:02:45.436Z,30.60
2019-03-17T10:05:14.159Z,30.60
2019-03-17T10:07:42.932Z,30.60
2019-03-17T10:10:13.844Z,30.60
2019-03-17T10:12:42.541Z,30.60
2019-03-17T10:15:21.679Z,30.60
2019-03-17T10:17:50.364Z,30.60
2019-03-17T10:20:21.672Z,30.60
2019-03-17T10:22:50.197Z,30.60
2019-03-17T10:25:18.974Z,31.10
2019-03-17T10:27:47.636Z,30.50
2019-03-17T10:30:22.774Z,30.50
2019-03-17T10:32:51.389Z,30.50
2019-03-17T10:35:20.387Z,30.50
2019-03-17T10:37:48.959Z,30.50
2019-03-17T10:40:19.126Z,30.50
2019-03-17T10:42:47.992Z,30.50
2019-03-17T10:45:16.762Z,30.50
2019-03-17T10:47:45.405Z,30.50
2019-03-17T10:50:16.232Z,30.50
2019-03-17T10:52:44.947Z,30.40
2019-03-17T10:55:13.915Z,30.50
2019-03-17T10:57:42.518Z,30.50
2019-03-17T11:00:21.602Z,30.50
2019-03-17T11:02:50.230Z,30.50
2019-03-17T11:05:18.905Z,30.50
2019-03-17T11:07:47.538Z,30.40
2019-03-17T11:10:16.853Z,30.50
2019-03-17T11:12:45.580Z,31.00
2019-03-17T11:15:21.383Z,30.40
2019-03-17T11:17:50.133Z,30.50
2019-03-17T11:20:18.780Z,30.40
2019-03-17T11:22:47.564Z,30.30
2019-03-17T11:25:17.653Z,30.30
2019-03-17T11:27:46.393Z,30.40
2019-03-17T11:30:19.938Z,30.30
2019-03-17T11:32:48.772Z,30.30
2019-03-17T11:35:17.509Z,30.30
2019-03-17T11:37:46.211Z,30.30
2019-03-17T11:40:18.957Z,30.30
2019-03-17T11:42:49.653Z,30.20
2019-03-17T11:45:18.374Z,30.20
2019-03-17T11:47:47.138Z,30.20
2019-03-17T11:50:20.625Z,30.30
2019-03-17T11:52:50.044Z,30.30
2019-03-17T11:55:18.826Z,30.30
2019-03-17T11:57:47.682Z,30.30
2019-03-17T12:00:17.074Z,30.20
2019-03-17T12:02:45.658Z,30.20
2019-03-17T12:05:14.519Z,30.20
2019-03-17T12:07:43.172Z,30.20
2019-03-17T12:10:22.877Z,30.20
2019-03-17T12:12:51.479Z,30.20
2019-03-17T12:15:34.646Z,30.10
2019-03-17T12:18:03.358Z,30.10
2019-03-17T12:20:32.221Z,30.20
2019-03-17T12:23:00.881Z,30.10
2019-03-17T12:25:29.693Z,30.10
2019-03-17T12:27:58.524Z,30.20
2019-03-17T12:30:28.106Z,30.20
2019-03-17T12:32:57.368Z,30.20
2019-03-17T12:35:26.056Z,30.20
2019-03-17T12:37:54.801Z,30.20
2019-03-17T12:40:25.415Z,30.10
2019-03-17T12:42:53.678Z,30.10
2019-03-17T12:45:22.271Z,30.20
2019-03-17T12:47:50.883Z,30.10
2019-03-17T12:50:21.711Z,30.20
2019-03-17T12:52:50.365Z,30.20
2019-03-17T12:55:18.981Z,30.10
2019-03-17T12:57:47.584Z,30.20
2019-03-17T13:00:26.292Z,30.20
2019-03-17T13:02:55.017Z,30.10
2019-03-17T13:05:23.673Z,30.10
2019-03-17T13:07:52.366Z,30.20
2019-03-17T13:10:23.617Z,30.10
2019-03-17T13:12:52.312Z,30.00
2019-03-17T13:15:21.001Z,30.00
2019-03-17T13:17:49.724Z,30.10
2019-03-17T13:20:21.763Z,30.10
2019-03-17T13:22:50.397Z,30.10
2019-03-17T13:25:19.122Z,30.10
2019-03-17T13:27:47.771Z,30.10
2019-03-17T13:30:17.625Z,30.20
2019-03-17T13:32:46.312Z,30.10
2019-03-17T13:35:15.087Z,30.20
2019-03-17T13:37:43.763Z,30.20
2019-03-17T13:40:28.342Z,30.20
2019-03-17T13:42:47.647Z,30.10
2019-03-17T13:45:16.240Z,30.20
2019-03-17T13:47:44.861Z,30.10
2019-03-17T13:50:20.409Z,30.00
2019-03-17T13:52:49.125Z,30.10
2019-03-17T13:55:17.857Z,30.10
2019-03-17T13:57:58.126Z,30.10
2019-03-17T14:00:26.805Z,30.10
2019-03-17T14:02:55.460Z,30.00
2019-03-17T14:05:24.122Z,30.00
2019-03-17T14:07:52.730Z,30.00
2019-03-17T14:10:21.509Z,30.00
2019-03-17T14:12:50.360Z,29.90
2019-03-17T14:15:19.121Z,30.00
2019-03-17T14:17:47.823Z,30.00
2019-03-17T14:20:21.221Z,30.00
2019-03-17T14:22:50.188Z,30.00
2019-03-17T14:25:21.885Z,30.00
2019-03-17T14:27:50.537Z,30.00
2019-03-17T14:30:20.609Z,30.00
2019-03-17T14:32:49.191Z,30.00
2019-03-17T14:35:17.896Z,30.00
2019-03-17T14:37:46.519Z,30.00
2019-03-17T14:40:16.255Z,30.00
2019-03-17T14:42:46.820Z,30.00
2019-03-17T14:45:16.752Z,30.00
2019-03-17T14:47:45.428Z,30.00
2019-03-17T14:50:16.420Z,30.00
2019-03-17T14:52:45.109Z,29.90
2019-03-17T14:55:13.764Z,30.50
2019-03-17T14:57:42.516Z,30.00
2019-03-17T15:00:19.276Z,29.90
2019-03-17T15:02:48.054Z,29.90
2019-03-17T15:05:16.787Z,29.90
2019-03-17T15:07:45.619Z,29.90
2019-03-17T15:10:22.658Z,29.90
2019-03-17T15:12:51.424Z,29.90
2019-03-17T15:15:21.312Z,29.90
2019-03-17T15:17:50.222Z,29.90
2019-03-17T15:20:26.995Z,29.90
2019-03-17T15:22:55.934Z,29.80
2019-03-17T15:25:24.595Z,29.90
2019-03-17T15:27:53.285Z,29.90
2019-03-17T15:30:24.998Z,30.00
2019-03-17T15:32:53.757Z,30.00
2019-03-17T15:35:22.434Z,30.00
2019-03-17T15:37:51.132Z,29.90
2019-03-17T15:40:23.517Z,29.90
2019-03-17T15:42:52.132Z,30.00
2019-03-17T15:45:24.470Z,29.90
2019-03-17T15:47:53.259Z,29.90
2019-03-17T15:50:26.635Z,30.00
2019-03-17T15:52:55.474Z,30.00
2019-03-17T15:55:24.285Z,29.90
2019-03-17T15:57:52.960Z,30.00
2019-03-17T16:00:27.111Z,30.00
2019-03-17T16:02:55.626Z,29.90
2019-03-17T16:05:24.332Z,30.00
2019-03-17T16:07:53.141Z,30.00
2019-03-17T16:10:27.038Z,30.00
2019-03-17T16:12:55.717Z,30.00
2019-03-17T16:15:24.406Z,30.00
2019-03-17T16:17:53.015Z,30.00
2019-03-17T16:20:22.639Z,30.00
2019-03-17T16:22:51.421Z,30.00
2019-03-17T16:25:39.665Z,29.90
2019-03-17T16:28:08.343Z,30.00
2019-03-17T16:30:36.995Z,30.00
2019-03-17T16:33:05.680Z,30.00
2019-03-17T16:35:34.332Z,30.00
2019-03-17T16:38:02.939Z,30.00
2019-03-17T16:40:36.062Z,30.00
2019-03-17T16:43:05.828Z,30.00
2019-03-17T16:45:34.559Z,30.00
2019-03-17T16:48:03.333Z,30.00
2019-03-17T16:50:31.918Z,30.00
2019-03-17T16:53:00.565Z,30.00
2019-03-17T16:55:29.182Z,30.50
2019-03-17T16:58:02.247Z,30.00
2019-03-17T17:00:30.924Z,30.00
2019-03-17T17:03:00.051Z,30.00
2019-03-17T17:05:28.941Z,30.00
2019-03-17T17:07:57.599Z,30.00
2019-03-17T17:10:28.525Z,30.00
2019-03-17T17:12:57.249Z,30.00
2019-03-17T17:15:33.623Z,30.00
2019-03-17T17:18:02.316Z,30.00
2019-03-17T17:20:36.093Z,30.10
2019-03-17T17:23:04.870Z,30.00
2019-03-17T17:25:33.498Z,30.00
2019-03-17T17:28:02.168Z,30.00
2019-03-17T17:30:30.827Z,30.00
2019-03-17T17:32:59.524Z,30.10
2019-03-17T17:35:28.212Z,30.00
2019-03-17T17:37:56.909Z,30.10
2019-03-17T17:40:29.533Z,30.10
2019-03-17T17:42:58.651Z,30.00
2019-03-17T17:45:27.301Z,30.00
2019-03-17T17:47:56.022Z,30.00
2019-03-17T17:50:29.095Z,30.00
2019-03-17T17:52:57.814Z,30.10
2019-03-17T17:55:26.520Z,30.00
2019-03-17T17:57:55.247Z,30.60
2019-03-17T18:00:39.024Z,30.00
2019-03-17T18:03:07.714Z,30.00
2019-03-17T18:05:36.454Z,30.00
2019-03-17T18:08:05.100Z,30.10
2019-03-17T18:10:33.757Z,30.00
2019-03-17T18:13:02.368Z,30.10
2019-03-17T18:15:34.353Z,30.10
2019-03-17T18:18:03.149Z,30.00
2019-03-17T18:20:31.790Z,30.10
2019-03-17T18:23:00.352Z,30.10
2019-03-17T18:25:29.042Z,30.10
2019-03-17T18:27:57.702Z,30.00
2019-03-17T18:30:26.326Z,30.00
2019-03-17T18:33:00.120Z,30.10
2019-03-17T18:35:33.196Z,30.00
2019-03-17T18:38:01.812Z,30.10
2019-03-17T18:40:30.423Z,30.10
2019-03-17T18:42:59.022Z,30.10
2019-03-17T18:45:33.742Z,30.10
2019-03-17T18:48:02.318Z,30.10
2019-03-17T18:50:31.014Z,30.10
2019-03-17T18:52:59.663Z,30.20
2019-03-17T18:55:28.347Z,30.10
2019-03-17T18:57:57.080Z,30.20
2019-03-17T19:00:27.972Z,30.20
2019-03-17T19:02:56.765Z,30.20
2019-03-17T19:05:25.502Z,30.20
2019-03-17T19:07:54.095Z,30.20
2019-03-17T19:10:22.724Z,30.20
2019-03-17T19:12:51.376Z,30.10
2019-03-17T19:15:23.355Z,30.20
2019-03-17T19:17:52.042Z,30.10
2019-03-17T19:20:21.700Z,30.30
2019-03-17T19:22:53.620Z,30.10
2019-03-17T19:25:23.583Z,30.10
2019-03-17T19:27:52.356Z,30.10
2019-03-17T19:30:22.998Z,30.10
2019-03-17T19:32:51.661Z,30.10
2019-03-17T19:35:20.459Z,30.10
2019-03-17T19:37:49.079Z,30.10
2019-03-17T19:40:24.785Z,30.10
2019-03-17T19:42:59.069Z,30.10
2019-03-17T19:45:23.901Z,30.10
2019-03-17T19:47:52.517Z,30.10
2019-03-17T19:50:25.630Z,30.10
2019-03-17T19:52:54.206Z,30.10
2019-03-17T19:55:22.946Z,30.10
2019-03-17T19:57:51.707Z,30.10
2019-03-17T20:00:21.295Z,30.70
2019-03-17T20:02:50.028Z,30.10
2019-03-17T20:05:18.799Z,30.10
2019-03-17T20:07:50.237Z,30.10
2019-03-17T20:10:24.652Z,30.10
2019-03-17T20:12:53.265Z,30.10
2019-03-17T20:15:21.958Z,30.10
2019-03-17T20:17:50.710Z,30.70
2019-03-17T20:20:19.514Z,30.10
2019-03-17T20:22:48.190Z,30.00
2019-03-17T20:25:16.858Z,30.10
2019-03-17T20:27:45.684Z,30.10
2019-03-17T20:30:18.264Z,30.10
2019-03-17T20:32:47.228Z,30.10
2019-03-17T20:35:15.977Z,30.00
2019-03-17T20:37:44.747Z,30.00
2019-03-17T20:40:18.410Z,30.00
2019-03-17T20:42:47.159Z,30.10
2019-03-17T20:45:19.901Z,30.20
2019-03-17T20:47:47.005Z,30.00
2019-03-17T20:50:19.987Z,30.10
2019-03-17T20:52:48.752Z,30.00
2019-03-17T20:55:17.460Z,30.10
2019-03-17T20:57:46.143Z,30.10
2019-03-17T21:00:15.833Z,30.10
2019-03-17T21:02:44.644Z,30.00
2019-03-17T21:05:13.397Z,30.00
2019-03-17T21:07:42.815Z,30.10
2019-03-17T21:10:13.567Z,30.10
2019-03-17T21:12:42.289Z,30.00
2019-03-17T21:15:19.167Z,30.10
2019-03-17T21:17:47.894Z,30.10
2019-03-17T21:20:24.815Z,30.00
2019-03-17T21:22:53.451Z,30.00
2019-03-17T21:25:22.074Z,30.00
2019-03-17T21:27:50.721Z,30.10
2019-03-17T21:30:33.384Z,30.10
2019-03-17T21:33:02.077Z,30.00
2019-03-17T21:35:30.678Z,30.10
2019-03-17T21:38:03.955Z,30.10
2019-03-17T21:40:32.652Z,30.10
2019-03-17T21:43:01.319Z,30.00
2019-03-17T21:45:29.952Z,30.10
2019-03-17T21:48:17.943Z,30.00
2019-03-17T21:50:46.621Z,30.00
2019-03-17T21:53:15.381Z,30.10
2019-03-17T21:55:46.879Z,30.10
2019-03-17T21:58:15.542Z,30.00
2019-03-17T22:00:44.114Z,30.70
2019-03-17T22:03:20.902Z,30.10
2019-03-17T22:05:49.491Z,30.00
2019-03-17T22:08:18.125Z,30.00
2019-03-17T22:10:46.747Z,30.00
2019-03-17T22:13:15.311Z,30.00
2019-03-17T22:15:44.105Z,30.00
2019-03-17T22:18:12.750Z,30.00
2019-03-17T22:20:41.411Z,30.00
2019-03-17T22:23:10.069Z,30.00
2019-03-17T22:25:38.721Z,30.00
2019-03-17T22:28:08.796Z,30.00
2019-03-17T22:30:37.728Z,30.00
2019-03-17T22:33:06.315Z,30.00
2019-03-17T22:35:34.949Z,30.00
2019-03-17T22:38:03.627Z,30.00
2019-03-17T22:40:32.322Z,30.00
2019-03-17T22:43:01.011Z,30.00
2019-03-17T22:45:29.663Z,30.00
2019-03-17T22:47:59.608Z,30.00
2019-03-17T22:50:28.288Z,30.00
2019-03-17T22:52:56.952Z,30.00
2019-03-17T22:55:25.654Z,30.00
2019-03-17T22:57:54.230Z,30.00
2019-03-17T23:00:24.644Z,30.00
2019-03-17T23:02:53.289Z,30.00
2019-03-17T23:05:21.980Z,30.00
2019-03-17T23:07:53.816Z,30.00
2019-03-17T23:10:22.517Z,30.00
2019-03-17T23:12:51.154Z,30.00
2019-03-17T23:15:19.864Z,30.00
2019-03-17T23:17:48.477Z,30.00
2019-03-17T23:20:17.514Z,30.00
2019-03-17T23:22:46.172Z,30.00
2019-03-17T23:25:14.934Z,30.00
2019-03-17T23:27:43.667Z,30.00
2019-03-17T23:30:17.599Z,30.00
2019-03-17T23:32:49.009Z,30.00
2019-03-17T23:35:16.653Z,30.00
2019-03-17T23:37:45.223Z,30.00
2019-03-17T23:40:17.853Z,30.00
2019-03-17T23:42:46.559Z,29.90
2019-03-17T23:45:15.377Z,30.00
2019-03-17T23:47:44.015Z,30.00
2019-03-17T23:50:16.092Z,29.90
2019-03-17T23:52:44.822Z,30.00
2019-03-17T23:55:14.897Z,29.90
2019-03-17T23:57:43.549Z,30.00
